createdAt,value
2018-09-04T00:00:36.978Z,95069.61
2018-09-04T00:03:05.867Z,95065.89
2018-09-04T00:05:34.757Z,95066.63
2018-09-04T00:08:03.537Z,95067.39
2018-09-04T00:10:32.280Z,95067.01
2018-09-04T00:13:01.039Z,95066.47
2018-09-04T00:15:29.835Z,95064.66
2018-09-04T00:17:58.579Z,95065.02
2018-09-04T00:20:27.336Z,95056.44
2018-09-04T00:22:56.164Z,95059.39
2018-09-04T00:25:24.839Z,95058.62
2018-09-04T00:27:53.621Z,95057.70
2018-09-04T00:30:22.441Z,95063.72
2018-09-04T00:32:51.304Z,95062.09
2018-09-04T00:35:20.031Z,95061.50
2018-09-04T00:37:48.769Z,95065.03
2018-09-04T00:40:17.571Z,95063.76
2018-09-04T00:42:46.380Z,95061.78
2018-09-04T00:45:15.112Z,95063.94
2018-09-04T00:47:43.910Z,95060.20
2018-09-04T00:50:12.656Z,95059.20
2018-09-04T00:52:41.333Z,95055.69
2018-09-04T00:55:10.144Z,95050.62
2018-09-04T00:57:38.801Z,95057.23
2018-09-04T01:00:07.779Z,95048.67
2018-09-04T01:02:36.564Z,95047.68
2018-09-04T01:05:05.402Z,95063.69
2018-09-04T01:07:34.162Z,95067.45
2018-09-04T01:10:02.890Z,95071.16
2018-09-04T01:12:31.688Z,95067.08
2018-09-04T01:15:00.420Z,95072.95
2018-09-04T01:17:29.207Z,95070.59
2018-09-04T01:19:57.937Z,95073.13
2018-09-04T01:22:26.623Z,95076.06
2018-09-04T01:24:55.430Z,95070.61
2018-09-04T01:27:24.251Z,95080.95
2018-09-04T01:29:52.884Z,95081.93
2018-09-04T01:32:21.608Z,95081.36
2018-09-04T01:34:50.302Z,95077.84
2018-09-04T01:37:19.025Z,95076.66
2018-09-04T01:39:47.813Z,95078.61
2018-09-04T01:42:16.608Z,95085.64
2018-09-04T01:44:45.371Z,95076.27
2018-09-04T01:47:14.182Z,95072.75
2018-09-04T01:49:42.862Z,95084.83
2018-09-04T01:52:11.531Z,95081.32
2018-09-04T01:54:40.304Z,95086.79
2018-09-04T01:57:09.039Z,95086.79
2018-09-04T01:59:37.733Z,95089.52
2018-09-04T02:02:06.564Z,95091.66
2018-09-04T02:04:35.276Z,95091.22
2018-09-04T02:07:04.217Z,95088.66
2018-09-04T02:09:32.935Z,95085.17
2018-09-04T02:12:01.676Z,95084.55
2018-09-04T02:14:30.333Z,95080.63
2018-09-04T02:16:59.116Z,95086.53
2018-09-04T02:19:27.848Z,95094.13
2018-09-04T02:21:56.531Z,95086.70
2018-09-04T02:24:25.273Z,95087.08
2018-09-04T02:26:53.986Z,95086.08
2018-09-04T02:29:22.748Z,95086.66
2018-09-04T02:31:51.385Z,95082.72
2018-09-04T02:34:20.125Z,95082.51
2018-09-04T02:36:48.867Z,95079.80
2018-09-04T02:39:17.685Z,95084.87
2018-09-04T02:41:46.476Z,95075.92
2018-09-04T02:44:15.340Z,95081.17
2018-09-04T02:46:44.031Z,95072.77
2018-09-04T02:49:12.755Z,95072.19
2018-09-04T02:51:41.447Z,95073.90
2018-09-04T02:54:10.525Z,95077.96
2018-09-04T02:56:39.261Z,95081.88
2018-09-04T02:59:08.087Z,95077.94
2018-09-04T03:01:36.758Z,95084.66
2018-09-04T03:04:05.517Z,95076.02
2018-09-04T03:06:34.282Z,95076.42
2018-09-04T03:09:03.073Z,95079.05
2018-09-04T03:11:31.758Z,95086.21
2018-09-04T03:14:00.609Z,95089.12
2018-09-04T03:16:29.279Z,95086.60
2018-09-04T03:18:58.007Z,95077.84
2018-09-04T03:21:26.821Z,95083.53
2018-09-04T03:23:55.560Z,95075.89
2018-09-04T03:26:24.419Z,95077.42
2018-09-04T03:28:53.213Z,95075.84
2018-09-04T03:31:21.950Z,95063.34
2018-09-04T03:33:50.671Z,95068.05
2018-09-04T03:36:19.508Z,95062.80
2018-09-04T03:38:48.203Z,95061.09
2018-09-04T03:41:16.971Z,95056.98
2018-09-04T03:43:45.686Z,95051.55
2018-09-04T03:46:14.436Z,95056.98
2018-09-04T03:48:43.185Z,95051.74
2018-09-04T03:51:11.976Z,95049.56
2018-09-04T03:53:40.709Z,95053.09
2018-09-04T03:56:09.428Z,95051.72
2018-09-04T03:58:38.197Z,95058.35
2018-09-04T04:01:06.886Z,95056.80
2018-09-04T04:03:35.642Z,95063.66
2018-09-04T04:06:04.517Z,95063.08
2018-09-04T04:08:33.311Z,95069.71
2018-09-04T04:11:02.310Z,95066.84
2018-09-04T04:13:31.061Z,95074.04
2018-09-04T04:15:59.857Z,95076.58
2018-09-04T04:18:28.581Z,95075.85
2018-09-04T04:21:00.102Z,95072.94
2018-09-04T04:23:29.743Z,95077.20
2018-09-04T04:26:00.997Z,95082.86
2018-09-04T04:28:29.748Z,95086.13
2018-09-04T04:30:58.480Z,95078.30
2018-09-04T04:33:27.207Z,95082.81
2018-09-04T04:35:55.926Z,95084.15
2018-09-04T04:38:24.619Z,95080.64
2018-09-04T04:40:53.230Z,95081.22
2018-09-04T04:43:21.967Z,95085.94
2018-09-04T04:45:50.801Z,95084.22
2018-09-04T04:48:19.542Z,95085.00
2018-09-04T04:50:48.280Z,95081.52
2018-09-04T04:53:16.942Z,95078.38
2018-09-04T04:55:45.712Z,95075.01
2018-09-04T04:58:14.595Z,95074.41
2018-09-04T05:00:43.261Z,95076.63
2018-09-04T05:03:12.060Z,95077.23
2018-09-04T05:05:40.761Z,95079.77
2018-09-04T05:08:09.507Z,95077.82
2018-09-04T05:10:38.216Z,95085.45
2018-09-04T05:13:07.163Z,95078.02
2018-09-04T05:15:35.929Z,95084.44
2018-09-04T05:18:04.635Z,95080.73
2018-09-04T05:20:33.512Z,95090.47
2018-09-04T05:23:02.379Z,95091.39
2018-09-04T05:25:31.157Z,95092.73
2018-09-04T05:27:59.808Z,95089.22
2018-09-04T05:30:28.600Z,95087.30
2018-09-04T05:33:09.649Z,95085.22
2018-09-04T05:35:48.614Z,95085.40
2018-09-04T05:38:17.356Z,95086.33
2018-09-04T05:40:46.026Z,95082.09
2018-09-04T05:43:22.172Z,95089.91
2018-09-04T05:45:50.978Z,95086.01
2018-09-04T05:48:19.755Z,95093.42
2018-09-04T05:50:48.621Z,95087.38
2018-09-04T05:53:17.527Z,95086.02
2018-09-04T05:55:46.416Z,95087.39
2018-09-04T05:58:15.210Z,95085.05
2018-09-04T06:00:46.548Z,95089.75
2018-09-04T06:03:15.416Z,95085.27
2018-09-04T06:05:44.115Z,95096.20
2018-09-04T06:08:12.984Z,95081.95
2018-09-04T06:10:41.754Z,95085.09
2018-09-04T06:13:10.512Z,95086.05
2018-09-04T06:15:39.418Z,95084.91
2018-09-04T06:18:08.144Z,95085.67
2018-09-04T06:20:36.877Z,95084.70
2018-09-04T06:23:06.027Z,95083.91
2018-09-04T06:25:34.744Z,95076.83
2018-09-04T06:28:04.112Z,95086.23
2018-09-04T06:30:33.595Z,95087.02
2018-09-04T06:33:02.270Z,95088.38
2018-09-04T06:35:31.203Z,95082.28
2018-09-04T06:37:59.912Z,95086.18
2018-09-04T06:40:28.614Z,95089.10
2018-09-04T06:42:57.288Z,95095.00
2018-09-04T06:45:26.120Z,95097.56
2018-09-04T06:47:54.857Z,95099.67
2018-09-04T06:50:23.796Z,95097.90
2018-09-04T06:52:52.608Z,95102.22
2018-09-04T06:55:21.381Z,95107.31
2018-09-04T06:57:50.152Z,95109.84
2018-09-04T07:00:18.940Z,95107.89
2018-09-04T07:02:47.776Z,95110.42
2018-09-04T07:05:16.539Z,95113.74
2018-09-04T07:07:45.335Z,95110.38
2018-09-04T07:10:14.043Z,95108.02
2018-09-04T07:12:42.757Z,95109.36
2018-09-04T07:15:11.617Z,95114.95
2018-09-04T07:17:40.322Z,95108.61
2018-09-04T07:20:09.129Z,95114.22
2018-09-04T07:22:38.012Z,95119.38
2018-09-04T07:25:06.936Z,95117.30
2018-09-04T07:27:35.682Z,95120.45
2018-09-04T07:30:05.928Z,95122.70
2018-09-04T07:32:34.630Z,95116.52
2018-09-04T07:35:03.356Z,95117.33
2018-09-04T07:37:32.044Z,95118.58
2018-09-04T07:40:00.834Z,95115.46
2018-09-04T07:42:29.721Z,95115.55
2018-09-04T07:44:58.433Z,95113.13
2018-09-04T07:47:27.091Z,95116.71
2018-09-04T07:49:55.909Z,95109.05
2018-09-04T07:52:24.574Z,95109.09
2018-09-04T07:54:53.308Z,95107.89
2018-09-04T07:57:22.039Z,95113.11
2018-09-04T07:59:50.695Z,95108.60
2018-09-04T08:02:19.331Z,95108.34
2018-09-04T08:04:48.156Z,95103.31
2018-09-04T08:07:16.961Z,95109.47
2018-09-04T08:09:45.654Z,95105.08
2018-09-04T08:12:14.489Z,95109.16
2018-09-04T08:14:43.263Z,95106.70
2018-09-04T08:17:12.461Z,95102.55
2018-09-04T08:19:41.233Z,95102.89
2018-09-04T08:22:09.982Z,95101.95
2018-09-04T08:24:38.758Z,95100.75
2018-09-04T08:27:07.455Z,95092.17
2018-09-04T08:29:36.194Z,95089.81
2018-09-04T08:32:04.867Z,95095.62
2018-09-04T08:34:33.585Z,95091.38
2018-09-04T08:37:02.467Z,95089.89
2018-09-04T08:39:31.128Z,95084.27
2018-09-04T08:41:59.811Z,95081.16
2018-09-04T08:44:28.695Z,95080.23
2018-09-04T08:46:57.503Z,95086.45
2018-09-04T08:49:26.253Z,95083.24
2018-09-04T08:51:54.966Z,95074.39
2018-09-04T08:54:23.795Z,95075.76
2018-09-04T08:56:52.747Z,95073.78
2018-09-04T08:59:21.590Z,95070.10
2018-09-04T09:01:50.615Z,95058.83
2018-09-04T09:04:19.326Z,95055.92
2018-09-04T09:06:48.107Z,95058.02
2018-09-04T09:09:16.847Z,95060.98
2018-09-04T09:11:45.685Z,95060.16
2018-09-04T09:14:14.415Z,95059.41
2018-09-04T09:16:43.100Z,95061.17
2018-09-04T09:19:11.890Z,95057.84
2018-09-04T09:21:40.626Z,95058.12
2018-09-04T09:24:09.389Z,95054.53
2018-09-04T09:26:38.180Z,95061.06
2018-09-04T09:29:07.086Z,95050.22
2018-09-04T09:31:35.833Z,95050.32
2018-09-04T09:34:04.505Z,95044.48
2018-09-04T09:36:33.309Z,95047.74
2018-09-04T09:39:02.138Z,95048.93
2018-09-04T09:41:30.912Z,95046.98
2018-09-04T09:43:59.676Z,95037.99
2018-09-04T09:46:28.381Z,95037.24
2018-09-04T09:48:57.114Z,95042.69
2018-09-04T09:51:25.810Z,95041.80
2018-09-04T09:53:54.529Z,95026.11
2018-09-04T09:56:23.342Z,95040.58
2018-09-04T09:58:52.023Z,95024.63
2018-09-04T10:01:24.956Z,95037.22
2018-09-04T10:04:06.799Z,95032.78
2018-09-04T10:06:35.350Z,95029.94
2018-09-04T10:09:05.302Z,95025.20
2018-09-04T10:11:34.187Z,95027.16
2018-09-04T10:14:02.992Z,95027.61
2018-09-04T10:16:31.784Z,95033.63
2018-09-04T10:19:00.512Z,95037.64
2018-09-04T10:21:29.340Z,94902.70
2018-09-04T10:23:58.179Z,95030.54
2018-09-04T10:26:27.152Z,95025.09
2018-09-04T10:28:55.946Z,95025.20
2018-09-04T10:31:24.717Z,95017.45
2018-09-04T10:33:53.523Z,95021.37
2018-09-04T10:36:22.420Z,95007.73
2018-09-04T10:38:55.240Z,95002.89
2018-09-04T10:41:24.147Z,95004.89
2018-09-04T10:43:52.925Z,95002.94
2018-09-04T10:46:21.581Z,94998.41
2018-09-04T10:48:50.245Z,94995.10
2018-09-04T10:51:18.920Z,94995.11
2018-09-04T10:53:47.565Z,94984.14
2018-09-04T10:56:16.395Z,94980.98
2018-09-04T10:58:45.132Z,94978.00
2018-09-04T11:01:13.820Z,94982.41
2018-09-04T11:03:42.540Z,94975.00
2018-09-04T11:06:11.195Z,94969.61
2018-09-04T11:08:39.944Z,94976.66
2018-09-04T11:11:08.645Z,94971.35
2018-09-04T11:13:37.312Z,94966.22
2018-09-04T11:16:05.974Z,94961.95
2018-09-04T11:18:34.372Z,94960.70
2018-09-04T11:21:03.057Z,94951.20
2018-09-04T11:23:31.774Z,94954.34
2018-09-04T11:26:00.399Z,94944.92
2018-09-04T11:28:29.016Z,94937.76
2018-09-04T11:30:57.743Z,94935.64
2018-09-04T11:33:26.402Z,94926.77
2018-09-04T11:35:55.132Z,94926.22
2018-09-04T11:38:23.750Z,94922.05
2018-09-04T11:40:52.408Z,94915.26
2018-09-04T11:43:21.020Z,94917.83
2018-09-04T11:45:49.712Z,94911.02
2018-09-04T11:48:18.383Z,94905.38
2018-09-04T11:50:47.250Z,94904.03
2018-09-04T11:53:15.919Z,94896.64
2018-09-04T11:55:44.599Z,94894.63
2018-09-04T11:58:13.748Z,94896.55
2018-09-04T12:00:44.831Z,94881.45
2018-09-04T12:03:14.659Z,94877.72
2018-09-04T12:05:43.407Z,94879.39
2018-09-04T12:08:12.146Z,94880.91
2018-09-04T12:10:41.170Z,94871.25
2018-09-04T12:13:09.903Z,94865.77
2018-09-04T12:15:40.470Z,94863.11
2018-09-04T12:18:10.821Z,94860.75
2018-09-04T12:21:11.720Z,94865.98
2018-09-04T12:23:40.735Z,94851.61
2018-09-04T12:26:10.534Z,94849.81
2018-09-04T12:28:39.205Z,94845.33
2018-09-04T12:31:08.635Z,94837.09
2018-09-04T12:33:37.328Z,94838.02
2018-09-04T12:36:06.197Z,94840.54
2018-09-04T12:38:36.294Z,94835.66
2018-09-04T12:41:15.448Z,94827.95
2018-09-04T12:43:44.114Z,94830.91
2018-09-04T12:46:12.831Z,94833.46
2018-09-04T12:48:45.573Z,94817.26
2018-09-04T12:51:14.188Z,94827.52
2018-09-04T12:53:42.879Z,94822.30
2018-09-04T12:56:11.558Z,94825.19
2018-09-04T12:58:40.314Z,94824.48
2018-09-04T13:01:08.966Z,94815.09
2018-09-04T13:03:37.608Z,94816.80
2018-09-04T13:06:06.302Z,94814.01
2018-09-04T13:08:35.355Z,94811.73
2018-09-04T13:11:04.085Z,94811.88
2018-09-04T13:13:32.739Z,94808.79
2018-09-04T13:16:01.996Z,94802.45
2018-09-04T13:18:31.030Z,94806.62
2018-09-04T13:21:02.000Z,94802.16
2018-09-04T13:23:31.307Z,94797.98
2018-09-04T13:25:59.968Z,94794.44
2018-09-04T13:28:29.250Z,94796.73
2018-09-04T13:30:58.004Z,94794.87
2018-09-04T13:33:26.684Z,94797.66
2018-09-04T13:35:55.322Z,94794.44
2018-09-04T13:38:24.043Z,94796.87
2018-09-04T13:40:57.998Z,94794.39
2018-09-04T13:43:26.651Z,94798.60
2018-09-04T13:45:55.463Z,94793.18
2018-09-04T13:48:28.203Z,94792.49
2018-09-04T13:50:57.296Z,94794.26
2018-09-04T13:53:26.392Z,94785.14
2018-09-04T13:55:55.034Z,94786.80
2018-09-04T13:58:23.806Z,94790.30
2018-09-04T14:00:52.495Z,94792.33
2018-09-04T14:03:21.155Z,94788.91
2018-09-04T14:05:49.792Z,94789.23
2018-09-04T14:08:18.515Z,94795.06
2018-09-04T14:10:47.167Z,94794.33
2018-09-04T14:13:15.811Z,94793.24
2018-09-04T14:15:44.539Z,94789.50
2018-09-04T14:18:13.255Z,94785.91
2018-09-04T14:20:41.882Z,94798.25
2018-09-04T14:23:10.510Z,94792.94
2018-09-04T14:25:39.313Z,94796.10
2018-09-04T14:28:07.833Z,94795.77
2018-09-04T14:30:36.645Z,94799.80
2018-09-04T14:33:05.382Z,94803.38
2018-09-04T14:35:34.094Z,94800.59
2018-09-04T14:38:03.989Z,94802.82
2018-09-04T14:40:32.669Z,94805.66
2018-09-04T14:43:01.335Z,94800.97
2018-09-04T14:45:30.053Z,94804.36
2018-09-04T14:47:58.743Z,94806.35
2018-09-04T14:50:27.377Z,94808.13
2018-09-04T14:52:56.094Z,94811.23
2018-09-04T14:55:24.759Z,94812.58
2018-09-04T14:57:53.355Z,94810.75
2018-09-04T15:00:23.388Z,94810.95
2018-09-04T15:02:52.059Z,94736.70
2018-09-04T15:05:20.754Z,94816.22
2018-09-04T15:07:49.631Z,94816.97
2018-09-04T15:10:18.315Z,94813.39
2018-09-04T15:12:47.019Z,94812.41
2018-09-04T15:15:15.687Z,94825.14
2018-09-04T15:17:44.338Z,94816.80
2018-09-04T15:20:13.035Z,94818.64
2018-09-04T15:22:41.681Z,94784.44
2018-09-04T15:25:10.417Z,94827.41
2018-09-04T15:27:39.130Z,94818.61
2018-09-04T15:30:07.900Z,94829.98
2018-09-04T15:32:36.614Z,94823.94
2018-09-04T15:35:05.395Z,94823.27
2018-09-04T15:37:34.038Z,94820.19
2018-09-04T15:40:02.699Z,94809.36
2018-09-04T15:42:31.416Z,94809.85
2018-09-04T15:45:00.093Z,94812.27
2018-09-04T15:47:28.759Z,94819.72
2018-09-04T15:49:57.434Z,94821.81
2018-09-04T15:52:26.103Z,94818.41
2018-09-04T15:54:54.802Z,94815.53
2018-09-04T15:57:23.490Z,94817.63
2018-09-04T15:59:52.140Z,94822.52
2018-09-04T16:02:20.819Z,94825.17
2018-09-04T16:04:49.630Z,94826.52
2018-09-04T16:07:18.359Z,94824.78
2018-09-04T16:09:47.040Z,94822.47
2018-09-04T16:12:15.709Z,94827.40
2018-09-04T16:14:44.389Z,94832.02
2018-09-04T16:17:13.151Z,94833.08
2018-09-04T16:19:41.829Z,94832.51
2018-09-04T16:22:10.502Z,94832.88
2018-09-04T16:24:39.189Z,94838.59
2018-09-04T16:27:08.027Z,94838.64
2018-09-04T16:29:36.728Z,94835.45
2018-09-04T16:32:05.436Z,94845.44
2018-09-04T16:34:34.153Z,94845.22
2018-09-04T16:37:02.850Z,94850.64
2018-09-04T16:39:31.924Z,94853.41
2018-09-04T16:42:01.068Z,94858.59
2018-09-04T16:44:29.842Z,94856.91
2018-09-04T16:46:58.570Z,94866.98
2018-09-04T16:49:28.115Z,94859.30
2018-09-04T16:51:58.759Z,94861.83
2018-09-04T16:54:28.147Z,94871.37
2018-09-04T16:56:56.847Z,94871.11
2018-09-04T16:59:25.571Z,94873.20
2018-09-04T17:01:54.430Z,94874.84
2018-09-04T17:04:23.232Z,94368.70
2018-09-04T17:06:52.353Z,94883.03
2018-09-04T17:09:21.021Z,94873.20
2018-09-04T17:11:49.769Z,94877.67
2018-09-04T17:14:18.558Z,94882.41
2018-09-04T17:16:47.207Z,94884.66
2018-09-04T17:19:16.733Z,94882.44
2018-09-04T17:21:45.684Z,94879.99
2018-09-04T17:24:14.537Z,94884.83
2018-09-04T17:26:43.379Z,94894.54
2018-09-04T17:29:12.212Z,94892.28
2018-09-04T17:31:40.954Z,94897.98
2018-09-04T17:34:09.782Z,94887.41
2018-09-04T17:36:38.706Z,94896.52
2018-09-04T17:39:08.704Z,94891.16
2018-09-04T17:41:38.112Z,94898.44
2018-09-04T17:44:07.264Z,94895.33
2018-09-04T17:46:36.014Z,94903.25
2018-09-04T17:49:04.900Z,94904.77
2018-09-04T17:51:34.579Z,94899.36
2018-09-04T17:54:03.398Z,94901.97
2018-09-04T17:56:32.294Z,94906.41
2018-09-04T17:59:01.485Z,94914.61
2018-09-04T18:01:30.285Z,94916.92
2018-09-04T18:03:58.981Z,94914.41
2018-09-04T18:06:28.047Z,94920.27
2018-09-04T18:08:56.834Z,94920.55
2018-09-04T18:11:25.544Z,94921.76
2018-09-04T18:13:54.414Z,94921.52
2018-09-04T18:16:23.195Z,94929.12
2018-09-04T18:18:52.113Z,94925.10
2018-09-04T18:21:21.060Z,94923.62
2018-09-04T18:23:49.987Z,94927.27
2018-09-04T18:26:18.921Z,94924.14
2018-09-04T18:28:47.634Z,94927.19
2018-09-04T18:31:16.562Z,94927.38
2018-09-04T18:33:45.386Z,94932.17
2018-09-04T18:36:14.226Z,94938.08
2018-09-04T18:38:43.120Z,94638.71
2018-09-04T18:41:12.263Z,94948.20
2018-09-04T18:43:41.114Z,94946.55
2018-09-04T18:46:10.580Z,94947.19
2018-09-04T18:48:40.050Z,94940.91
2018-09-04T18:51:08.906Z,94947.74
2018-09-04T18:53:37.721Z,94804.92
2018-09-04T18:56:06.651Z,94959.10
2018-09-04T18:58:35.339Z,94954.77
2018-09-04T19:01:04.174Z,94964.00
2018-09-04T19:03:33.061Z,94959.92
2018-09-04T19:06:02.220Z,94959.81
2018-09-04T19:08:30.961Z,94957.68
2018-09-04T19:10:59.660Z,94957.92
2018-09-04T19:13:28.319Z,94965.67
2018-09-04T19:15:57.195Z,94812.02
2018-09-04T19:18:26.337Z,94969.39
2018-09-04T19:20:55.291Z,94973.00
2018-09-04T19:23:24.136Z,94970.77
2018-09-04T19:25:52.785Z,94969.66
2018-09-04T19:28:21.555Z,94970.28
2018-09-04T19:30:50.298Z,94972.68
2018-09-04T19:33:19.011Z,94968.40
2018-09-04T19:35:47.856Z,94970.78
2018-09-04T19:38:16.683Z,94972.84
2018-09-04T19:40:45.457Z,94975.27
2018-09-04T19:43:14.336Z,94977.65
2018-09-04T19:45:42.977Z,94975.63
2018-09-04T19:48:11.827Z,94973.11
2018-09-04T19:50:40.647Z,94975.33
2018-09-04T19:53:09.535Z,94970.09
2018-09-04T19:55:38.298Z,94974.93
2018-09-04T19:58:07.164Z,94979.81
2018-09-04T20:00:35.955Z,94970.46
2018-09-04T20:03:04.871Z,94977.22
2018-09-04T20:05:33.553Z,94965.56
2018-09-04T20:08:02.502Z,94965.28
2018-09-04T20:10:31.371Z,94968.75
2018-09-04T20:13:00.471Z,94965.84
2018-09-04T20:15:29.235Z,94961.66
2018-09-04T20:17:58.153Z,94962.13
2018-09-04T20:20:26.834Z,94966.33
2018-09-04T20:22:55.499Z,94980.11
2018-09-04T20:25:24.333Z,95007.41
2018-09-04T20:27:53.093Z,95022.51
2018-09-04T20:30:21.819Z,95014.09
2018-09-04T20:32:50.864Z,95010.81
2018-09-04T20:35:20.335Z,95009.44
2018-09-04T20:37:49.273Z,95017.94
2018-09-04T20:40:17.957Z,95031.93
2018-09-04T20:42:46.594Z,95036.55
2018-09-04T20:45:15.430Z,95038.65
2018-09-04T20:47:44.387Z,95035.20
2018-09-04T20:50:13.074Z,95029.00
2018-09-04T20:52:41.750Z,95033.73
2018-09-04T20:55:10.597Z,95027.88
2018-09-04T20:57:39.581Z,95038.86
2018-09-04T21:00:23.321Z,95040.08
2018-09-04T21:03:03.038Z,95044.41
2018-09-04T21:05:43.041Z,95041.66
2018-09-04T21:08:24.644Z,95053.03
2018-09-04T21:10:54.051Z,95044.81
2018-09-04T21:13:22.778Z,95048.36
2018-09-04T21:15:51.362Z,95050.70
2018-09-04T21:18:20.135Z,95054.41
2018-09-04T21:20:49.041Z,95058.72
2018-09-04T21:23:17.910Z,95053.83
2018-09-04T21:25:46.650Z,95047.79
2018-09-04T21:28:15.340Z,95046.40
2018-09-04T21:30:44.055Z,95048.96
2018-09-04T21:33:12.997Z,95051.30
2018-09-04T21:35:41.727Z,95050.31
2018-09-04T21:38:10.413Z,95051.31
2018-09-04T21:40:39.182Z,95056.95
2018-09-04T21:43:07.992Z,95054.43
2018-09-04T21:45:36.843Z,95054.63
2018-09-04T21:48:05.999Z,95051.31
2018-09-04T21:50:34.749Z,95064.38
2018-09-04T21:53:03.639Z,95066.33
2018-09-04T21:55:32.351Z,95061.44
2018-09-04T21:58:01.060Z,95062.63
2018-09-04T22:00:30.022Z,95060.66
2018-09-04T22:02:58.992Z,95066.52
2018-09-04T22:05:27.784Z,95062.23
2018-09-04T22:07:57.601Z,95063.80
2018-09-04T22:10:27.476Z,95066.92
2018-09-04T22:12:56.815Z,95067.13
2018-09-04T22:15:25.638Z,95069.64
2018-09-04T22:17:54.759Z,95065.54
2018-09-04T22:20:23.551Z,95071.42
2018-09-04T22:22:52.380Z,95060.30
2018-09-04T22:25:21.363Z,95068.69
2018-09-04T22:27:50.051Z,95068.48
2018-09-04T22:30:18.817Z,95071.22
2018-09-04T22:32:47.602Z,95068.87
2018-09-04T22:35:16.624Z,95067.70
2018-09-04T22:37:45.282Z,95064.00
2018-09-04T22:40:14.273Z,95037.23
2018-09-04T22:42:43.131Z,95063.59
2018-09-04T22:45:12.109Z,95057.14
2018-09-04T22:47:42.087Z,95057.16
2018-09-04T22:50:16.048Z,95065.75
2018-09-04T22:52:45.090Z,95055.98
2018-09-04T22:55:14.590Z,95059.67
2018-09-04T22:57:44.337Z,95055.78
2018-09-04T23:00:14.482Z,95050.89
2018-09-04T23:02:43.308Z,95044.47
2018-09-04T23:05:12.704Z,95041.52
2018-09-04T23:07:41.610Z,95042.30
2018-09-04T23:10:10.338Z,95036.64
2018-09-04T23:12:39.533Z,95035.68
2018-09-04T23:15:08.554Z,95043.48
2018-09-04T23:17:37.577Z,95034.31
2018-09-04T23:20:06.935Z,94908.61
2018-09-04T23:22:35.689Z,95019.08
2018-09-04T23:25:04.515Z,95016.72
2018-09-04T23:27:33.507Z,95013.61
2018-09-04T23:30:02.137Z,95006.98
2018-09-04T23:32:31.456Z,95013.21
2018-09-04T23:35:00.153Z,95010.08
2018-09-04T23:37:29.139Z,95010.88
2018-09-04T23:39:57.939Z,94998.16
2018-09-04T23:42:31.599Z,95006.74
2018-09-04T23:45:01.148Z,95001.27
2018-09-04T23:47:30.347Z,95003.83
2018-09-04T23:49:59.864Z,95000.89
2018-09-04T23:52:28.688Z,94999.75
2018-09-04T23:54:57.398Z,94998.19
2018-09-04T23:57:26.311Z,95001.70
2018-09-04T23:59:55.027Z,95002.30
